sensor_id;sensor_type;location;lat;lon;timestamp;temperature;humidity
18868;DHT22;9563;49.240;9.088;2022-10-16T00:00:40;15.70;99.90
18868;DHT22;9563;49.240;9.088;2022-10-16T00:03:07;15.80;99.90
18868;DHT22;9563;49.240;9.088;2022-10-16T00:05:38;15.70;99.90
18868;DHT22;9563;49.240;9.088;2022-10-16T00:08:06;15.80;99.90
18868;DHT22;9563;49.240;9.088;2022-10-16T00:10:33;15.70;99.90
18868;DHT22;9563;49.240;9.088;2022-10-16T00:13:01;15.70;99.90
18868;DHT22;9563;49.240;9.088;2022-10-16T00:15:28;15.70;99.90
18868;DHT22;9563;49.240;9.088;2022-10-16T00:17:55;15.70;99.90
18868;DHT22;9563;49.240;9.088;2022-10-16T00:20:22;15.70;99.90
18868;DHT22;9563;49.240;9.088;2022-10-16T00:22:49;15.70;99.90
18868;DHT22;9563;49.240;9.088;2022-10-16T00:25:16;15.60;99.90
18868;DHT22;9563;49.240;9.088;2022-10-16T00:27:43;15.60;99.90
18868;DHT22;9563;49.240;9.088;2022-10-16T00:30:11;15.60;99.90
18868;DHT22;9563;49.240;9.088;2022-10-16T00:32:38;15.60;99.90
18868;DHT22;9563;49.240;9.088;2022-10-16T00:35:06;15.50;99.90
18868;DHT22;9563;49.240;9.088;2022-10-16T00:37:33;15.50;99.90
18868;DHT22;9563;49.240;9.088;2022-10-16T00:40:00;15.60;99.90
18868;DHT22;9563;49.240;9.088;2022-10-16T00:42:26;15.60;99.90
18868;DHT22;9563;49.240;9.088;2022-10-16T00:44:55;15.60;99.90
18868;DHT22;9563;49.240;9.088;2022-10-16T00:47:28;15.60;99.90
18868;DHT22;9563;49.240;9.088;2022-10-16T00:50:00;15.60;99.90
18868;DHT22;9563;49.240;9.088;2022-10-16T00:52:28;15.60;99.90
18868;DHT22;9563;49.240;9.088;2022-10-16T00:54:56;15.60;99.90
18868;DHT22;9563;49.240;9.088;2022-10-16T00:57:23;15.60;99.90
18868;DHT22;9563;49.240;9.088;2022-10-16T00:59:50;15.60;99.90
18868;DHT22;9563;49.240;9.088;2022-10-16T01:02:17;15.60;99.90
18868;DHT22;9563;49.240;9.088;2022-10-16T01:04:48;15.60;99.90
18868;DHT22;9563;49.240;9.088;2022-10-16T01:07:24;15.60;99.90
18868;DHT22;9563;49.240;9.088;2022-10-16T01:10:02;15.60;99.90
18868;DHT22;9563;49.240;9.088;2022-10-16T01:12:38;15.60;99.90
18868;DHT22;9563;49.240;9.088;2022-10-16T01:15:11;15.60;99.90
18868;DHT22;9563;49.240;9.088;2022-10-16T01:17:44;15.60;99.90
18868;DHT22;9563;49.240;9.088;2022-10-16T01:20:20;15.60;99.90
18868;DHT22;9563;49.240;9.088;2022-10-16T01:23:02;15.60;99.90
18868;DHT22;9563;49.240;9.088;2022-10-16T01:25:42;15.60;99.90
18868;DHT22;9563;49.240;9.088;2022-10-16T01:28:14;15.60;99.90
18868;DHT22;9563;49.240;9.088;2022-10-16T01:30:43;15.60;99.90
18868;DHT22;9563;49.240;9.088;2022-10-16T01:33:16;15.60;99.90
18868;DHT22;9563;49.240;9.088;2022-10-16T01:35:47;15.60;99.90
18868;DHT22;9563;49.240;9.088;2022-10-16T01:38:17;15.70;99.90
18868;DHT22;9563;49.240;9.088;2022-10-16T01:40:50;15.60;99.90
18868;DHT22;9563;49.240;9.088;2022-10-16T01:43:21;15.70;99.90
18868;DHT22;9563;49.240;9.088;2022-10-16T01:45:49;15.70;99.90
18868;DHT22;9563;49.240;9.088;2022-10-16T01:48:19;15.70;99.90
18868;DHT22;9563;49.240;9.088;2022-10-16T01:50:52;15.70;99.90
18868;DHT22;9563;49.240;9.088;2022-10-16T01:53:21;15.70;99.90
18868;DHT22;9563;49.240;9.088;2022-10-16T01:55:49;15.70;99.90
18868;DHT22;9563;49.240;9.088;2022-10-16T01:58:20;15.70;99.90
18868;DHT22;9563;49.240;9.088;2022-10-16T02:00:48;15.70;99.90
18868;DHT22;9563;49.240;9.088;2022-10-16T02:03:18;15.70;99.90
18868;DHT22;9563;49.240;9.088;2022-10-16T02:05:47;15.70;99.90
18868;DHT22;9563;49.240;9.088;2022-10-16T02:08:16;15.70;99.90
18868;DHT22;9563;49.240;9.088;2022-10-16T02:10:43;15.70;99.90
18868;DHT22;9563;49.240;9.088;2022-10-16T02:13:12;15.70;99.90
18868;DHT22;9563;49.240;9.088;2022-10-16T02:15:42;15.80;99.90
18868;DHT22;9563;49.240;9.088;2022-10-16T02:18:09;15.80;99.90
18868;DHT22;9563;49.240;9.088;2022-10-16T02:20:40;15.80;99.90
18868;DHT22;9563;49.240;9.088;2022-10-16T02:23:12;15.80;99.90
18868;DHT22;9563;49.240;9.088;2022-10-16T02:25:44;15.80;99.90
18868;DHT22;9563;49.240;9.088;2022-10-16T02:28:16;15.80;99.90
18868;DHT22;9563;49.240;9.088;2022-10-16T02:30:48;15.80;99.90
18868;DHT22;9563;49.240;9.088;2022-10-16T02:33:18;15.80;99.90
18868;DHT22;9563;49.240;9.088;2022-10-16T02:35:47;15.80;99.90
18868;DHT22;9563;49.240;9.088;2022-10-16T02:38:16;15.80;99.90
18868;DHT22;9563;49.240;9.088;2022-10-16T02:40:43;15.80;99.90
18868;DHT22;9563;49.240;9.088;2022-10-16T02:43:11;15.70;99.90
18868;DHT22;9563;49.240;9.088;2022-10-16T02:45:38;15.80;99.90
18868;DHT22;9563;49.240;9.088;2022-10-16T02:48:06;15.80;99.90
18868;DHT22;9563;49.240;9.088;2022-10-16T02:50:33;15.80;99.90
18868;DHT22;9563;49.240;9.088;2022-10-16T02:53:00;15.80;99.90
18868;DHT22;9563;49.240;9.088;2022-10-16T02:55:27;15.80;99.90
18868;DHT22;9563;49.240;9.088;2022-10-16T02:57:54;15.80;99.90
18868;DHT22;9563;49.240;9.088;2022-10-16T03:00:21;15.80;99.90
18868;DHT22;9563;49.240;9.088;2022-10-16T03:02:48;15.80;99.90
18868;DHT22;9563;49.240;9.088;2022-10-16T03:05:17;15.80;99.90
18868;DHT22;9563;49.240;9.088;2022-10-16T03:07:44;15.80;99.90
18868;DHT22;9563;49.240;9.088;2022-10-16T03:10:10;15.80;99.90
18868;DHT22;9563;49.240;9.088;2022-10-16T03:12:37;15.80;99.90
18868;DHT22;9563;49.240;9.088;2022-10-16T03:15:05;15.80;99.90
18868;DHT22;9563;49.240;9.088;2022-10-16T03:17:32;15.80;99.90
18868;DHT22;9563;49.240;9.088;2022-10-16T03:20:00;15.80;99.90
18868;DHT22;9563;49.240;9.088;2022-10-16T03:22:28;15.80;99.90
18868;DHT22;9563;49.240;9.088;2022-10-16T03:24:55;15.80;99.90
18868;DHT22;9563;49.240;9.088;2022-10-16T03:27:22;15.80;99.90
18868;DHT22;9563;49.240;9.088;2022-10-16T03:29:49;15.80;99.90
18868;DHT22;9563;49.240;9.088;2022-10-16T03:32:16;15.80;99.90
18868;DHT22;9563;49.240;9.088;2022-10-16T03:34:43;15.80;99.90
18868;DHT22;9563;49.240;9.088;2022-10-16T03:37:10;15.80;99.90
18868;DHT22;9563;49.240;9.088;2022-10-16T03:39:39;15.80;99.90
18868;DHT22;9563;49.240;9.088;2022-10-16T03:42:06;15.80;99.90
18868;DHT22;9563;49.240;9.088;2022-10-16T03:44:32;15.80;99.90
18868;DHT22;9563;49.240;9.088;2022-10-16T03:46:59;15.80;99.90
18868;DHT22;9563;49.240;9.088;2022-10-16T03:49:26;15.80;99.90
18868;DHT22;9563;49.240;9.088;2022-10-16T03:51:53;15.80;99.90
18868;DHT22;9563;49.240;9.088;2022-10-16T03:54:20;15.80;99.90
18868;DHT22;9563;49.240;9.088;2022-10-16T03:56:48;15.70;99.90
18868;DHT22;9563;49.240;9.088;2022-10-16T03:59:16;15.80;99.90
18868;DHT22;9563;49.240;9.088;2022-10-16T04:01:43;15.80;99.90
18868;DHT22;9563;49.240;9.088;2022-10-16T04:04:09;15.80;99.90
18868;DHT22;9563;49.240;9.088;2022-10-16T04:06:36;15.80;99.90
18868;DHT22;9563;49.240;9.088;2022-10-16T04:09:04;15.70;99.90
18868;DHT22;9563;49.240;9.088;2022-10-16T04:11:31;15.70;99.90
18868;DHT22;9563;49.240;9.088;2022-10-16T04:13:59;15.80;99.90
18868;DHT22;9563;49.240;9.088;2022-10-16T04:16:26;15.70;99.90
18868;DHT22;9563;49.240;9.088;2022-10-16T04:18:53;15.80;99.90
18868;DHT22;9563;49.240;9.088;2022-10-16T04:21:20;15.80;99.90
18868;DHT22;9563;49.240;9.088;2022-10-16T04:23:47;15.80;99.90
18868;DHT22;9563;49.240;9.088;2022-10-16T04:26:15;15.80;99.90
18868;DHT22;9563;49.240;9.088;2022-10-16T04:28:42;15.80;99.90
18868;DHT22;9563;49.240;9.088;2022-10-16T04:31:10;15.80;99.90
18868;DHT22;9563;49.240;9.088;2022-10-16T04:33:37;15.80;99.90
18868;DHT22;9563;49.240;9.088;2022-10-16T04:36:04;15.80;99.90
18868;DHT22;9563;49.240;9.088;2022-10-16T04:38:31;15.80;99.90
18868;DHT22;9563;49.240;9.088;2022-10-16T04:40:58;15.70;99.90
18868;DHT22;9563;49.240;9.088;2022-10-16T04:43:25;15.70;99.90
18868;DHT22;9563;49.240;9.088;2022-10-16T04:45:52;15.70;99.90
18868;DHT22;9563;49.240;9.088;2022-10-16T04:48:21;15.70;99.90
18868;DHT22;9563;49.240;9.088;2022-10-16T04:50:48;15.70;99.90
18868;DHT22;9563;49.240;9.088;2022-10-16T04:53:15;15.70;99.90
18868;DHT22;9563;49.240;9.088;2022-10-16T04:55:42;15.70;99.90
18868;DHT22;9563;49.240;9.088;2022-10-16T04:58:09;15.70;99.90
18868;DHT22;9563;49.240;9.088;2022-10-16T05:00:36;15.70;99.90
18868;DHT22;9563;49.240;9.088;2022-10-16T05:03:03;15.70;99.90
18868;DHT22;9563;49.240;9.088;2022-10-16T05:05:34;15.70;99.90
18868;DHT22;9563;49.240;9.088;2022-10-16T05:08:01;15.70;99.90
18868;DHT22;9563;49.240;9.088;2022-10-16T05:10:28;15.70;99.90
18868;DHT22;9563;49.240;9.088;2022-10-16T05:12:55;15.70;99.90
18868;DHT22;9563;49.240;9.088;2022-10-16T05:15:21;15.70;99.90
18868;DHT22;9563;49.240;9.088;2022-10-16T05:17:52;15.70;99.90
18868;DHT22;9563;49.240;9.088;2022-10-16T05:20:19;15.70;99.90
18868;DHT22;9563;49.240;9.088;2022-10-16T05:22:48;15.70;99.90
18868;DHT22;9563;49.240;9.088;2022-10-16T05:25:15;15.70;99.90
18868;DHT22;9563;49.240;9.088;2022-10-16T05:27:41;15.70;99.90
18868;DHT22;9563;49.240;9.088;2022-10-16T05:30:09;15.70;99.90
18868;DHT22;9563;49.240;9.088;2022-10-16T05:32:36;15.70;99.90
18868;DHT22;9563;49.240;9.088;2022-10-16T05:35:03;15.70;99.90
18868;DHT22;9563;49.240;9.088;2022-10-16T05:37:30;15.70;99.90
18868;DHT22;9563;49.240;9.088;2022-10-16T05:39:58;15.70;99.90
18868;DHT22;9563;49.240;9.088;2022-10-16T05:42:25;15.70;99.90
18868;DHT22;9563;49.240;9.088;2022-10-16T05:44:52;15.70;99.90
18868;DHT22;9563;49.240;9.088;2022-10-16T05:47:19;15.70;99.90
18868;DHT22;9563;49.240;9.088;2022-10-16T05:49:47;15.70;99.90
18868;DHT22;9563;49.240;9.088;2022-10-16T05:52:14;15.70;99.90
18868;DHT22;9563;49.240;9.088;2022-10-16T05:54:41;15.70;99.90
18868;DHT22;9563;49.240;9.088;2022-10-16T05:57:10;15.60;99.90
18868;DHT22;9563;49.240;9.088;2022-10-16T05:59:37;15.60;99.90
18868;DHT22;9563;49.240;9.088;2022-10-16T06:02:04;15.60;99.90
18868;DHT22;9563;49.240;9.088;2022-10-16T06:04:31;15.60;99.90
18868;DHT22;9563;49.240;9.088;2022-10-16T06:06:58;15.60;99.90
18868;DHT22;9563;49.240;9.088;2022-10-16T06:09:27;15.60;99.90
18868;DHT22;9563;49.240;9.088;2022-10-16T06:11:53;15.60;99.90
18868;DHT22;9563;49.240;9.088;2022-10-16T06:14:22;15.60;99.90
18868;DHT22;9563;49.240;9.088;2022-10-16T06:16:49;15.60;99.90
18868;DHT22;9563;49.240;9.088;2022-10-16T06:19:16;15.60;99.90
18868;DHT22;9563;49.240;9.088;2022-10-16T06:21:44;15.60;99.90
18868;DHT22;9563;49.240;9.088;2022-10-16T06:24:11;15.60;99.90
18868;DHT22;9563;49.240;9.088;2022-10-16T06:26:38;15.60;99.90
18868;DHT22;9563;49.240;9.088;2022-10-16T06:29:05;15.60;99.90
18868;DHT22;9563;49.240;9.088;2022-10-16T06:31:33;15.70;99.90
18868;DHT22;9563;49.240;9.088;2022-10-16T06:34:00;15.70;99.90
18868;DHT22;9563;49.240;9.088;2022-10-16T06:36:30;15.60;99.90
18868;DHT22;9563;49.240;9.088;2022-10-16T06:38:56;15.70;99.90
18868;DHT22;9563;49.240;9.088;2022-10-16T06:41:23;15.70;99.90
18868;DHT22;9563;49.240;9.088;2022-10-16T06:43:50;15.70;99.90
18868;DHT22;9563;49.240;9.088;2022-10-16T06:46:19;15.70;99.90
18868;DHT22;9563;49.240;9.088;2022-10-16T06:48:48;15.70;99.90
18868;DHT22;9563;49.240;9.088;2022-10-16T06:51:17;15.80;99.90
18868;DHT22;9563;49.240;9.088;2022-10-16T06:53:46;15.80;99.90
18868;DHT22;9563;49.240;9.088;2022-10-16T06:56:16;15.80;99.90
18868;DHT22;9563;49.240;9.088;2022-10-16T06:58:44;15.80;99.90
18868;DHT22;9563;49.240;9.088;2022-10-16T07:01:11;15.80;99.90
18868;DHT22;9563;49.240;9.088;2022-10-16T07:03:40;15.90;99.90
18868;DHT22;9563;49.240;9.088;2022-10-16T07:06:10;15.90;99.90
18868;DHT22;9563;49.240;9.088;2022-10-16T07:08:39;15.90;99.90
18868;DHT22;9563;49.240;9.088;2022-10-16T07:11:09;15.90;99.90
18868;DHT22;9563;49.240;9.088;2022-10-16T07:13:38;15.90;99.90
18868;DHT22;9563;49.240;9.088;2022-10-16T07:16:05;15.90;99.90
18868;DHT22;9563;49.240;9.088;2022-10-16T07:18:33;15.90;99.90
18868;DHT22;9563;49.240;9.088;2022-10-16T07:21:04;15.90;99.90
18868;DHT22;9563;49.240;9.088;2022-10-16T07:23:32;15.90;99.90
18868;DHT22;9563;49.240;9.088;2022-10-16T07:25:59;15.90;99.90
18868;DHT22;9563;49.240;9.088;2022-10-16T07:28:26;15.90;99.90
18868;DHT22;9563;49.240;9.088;2022-10-16T07:30:53;16.00;99.90
18868;DHT22;9563;49.240;9.088;2022-10-16T07:33:20;16.00;99.90
18868;DHT22;9563;49.240;9.088;2022-10-16T07:35:49;16.10;99.90
18868;DHT22;9563;49.240;9.088;2022-10-16T07:38:16;16.10;99.90
18868;DHT22;9563;49.240;9.088;2022-10-16T07:40:45;16.20;99.90
18868;DHT22;9563;49.240;9.088;2022-10-16T07:43:12;16.20;99.90
18868;DHT22;9563;49.240;9.088;2022-10-16T07:45:47;16.20;99.90
18868;DHT22;9563;49.240;9.088;2022-10-16T07:48:14;16.30;99.90
18868;DHT22;9563;49.240;9.088;2022-10-16T07:50:41;16.40;99.90
18868;DHT22;9563;49.240;9.088;2022-10-16T07:53:09;16.40;99.90
18868;DHT22;9563;49.240;9.088;2022-10-16T07:55:36;16.50;99.90
18868;DHT22;9563;49.240;9.088;2022-10-16T07:58:04;16.50;99.90
18868;DHT22;9563;49.240;9.088;2022-10-16T08:00:32;16.50;99.90
18868;DHT22;9563;49.240;9.088;2022-10-16T08:03:00;16.60;99.90
18868;DHT22;9563;49.240;9.088;2022-10-16T08:05:27;16.70;99.90
18868;DHT22;9563;49.240;9.088;2022-10-16T08:07:56;16.70;99.90
18868;DHT22;9563;49.240;9.088;2022-10-16T08:10:25;16.80;99.90
18868;DHT22;9563;49.240;9.088;2022-10-16T08:12:53;16.90;99.90
18868;DHT22;9563;49.240;9.088;2022-10-16T08:15:21;17.00;99.90
18868;DHT22;9563;49.240;9.088;2022-10-16T08:17:55;17.10;99.90
18868;DHT22;9563;49.240;9.088;2022-10-16T08:20:22;17.20;99.90
18868;DHT22;9563;49.240;9.088;2022-10-16T08:22:49;17.30;99.90
18868;DHT22;9563;49.240;9.088;2022-10-16T08:25:16;17.30;99.90
18868;DHT22;9563;49.240;9.088;2022-10-16T08:27:43;17.40;99.90
18868;DHT22;9563;49.240;9.088;2022-10-16T08:30:11;17.30;99.90
18868;DHT22;9563;49.240;9.088;2022-10-16T08:32:39;17.40;99.90
18868;DHT22;9563;49.240;9.088;2022-10-16T08:35:08;17.40;99.90
18868;DHT22;9563;49.240;9.088;2022-10-16T08:37:35;17.50;99.90
18868;DHT22;9563;49.240;9.088;2022-10-16T08:40:04;17.50;99.90
18868;DHT22;9563;49.240;9.088;2022-10-16T08:42:52;17.60;99.90
18868;DHT22;9563;49.240;9.088;2022-10-16T08:45:43;17.70;99.90
18868;DHT22;9563;49.240;9.088;2022-10-16T08:48:20;17.90;99.90
18868;DHT22;9563;49.240;9.088;2022-10-16T08:50:50;18.10;99.90
18868;DHT22;9563;49.240;9.088;2022-10-16T08:53:23;18.20;99.90
18868;DHT22;9563;49.240;9.088;2022-10-16T08:55:51;18.30;99.90
18868;DHT22;9563;49.240;9.088;2022-10-16T08:58:20;18.30;99.90
18868;DHT22;9563;49.240;9.088;2022-10-16T09:00:51;18.30;99.90
18868;DHT22;9563;49.240;9.088;2022-10-16T09:03:38;18.40;99.90
18868;DHT22;9563;49.240;9.088;2022-10-16T09:06:19;18.50;99.90
18868;DHT22;9563;49.240;9.088;2022-10-16T09:09:10;18.50;99.90
18868;DHT22;9563;49.240;9.088;2022-10-16T09:11:48;18.50;99.90
18868;DHT22;9563;49.240;9.088;2022-10-16T09:14:36;18.50;99.90
18868;DHT22;9563;49.240;9.088;2022-10-16T09:17:18;18.70;99.90
18868;DHT22;9563;49.240;9.088;2022-10-16T09:19:53;18.70;99.90
18868;DHT22;9563;49.240;9.088;2022-10-16T09:22:24;18.70;99.90
18868;DHT22;9563;49.240;9.088;2022-10-16T09:24:52;18.80;99.90
18868;DHT22;9563;49.240;9.088;2022-10-16T09:27:20;18.80;99.90
18868;DHT22;9563;49.240;9.088;2022-10-16T09:29:47;18.80;99.90
18868;DHT22;9563;49.240;9.088;2022-10-16T09:32:17;18.90;99.90
18868;DHT22;9563;49.240;9.088;2022-10-16T09:34:49;18.90;99.90
18868;DHT22;9563;49.240;9.088;2022-10-16T09:37:20;19.00;99.90
18868;DHT22;9563;49.240;9.088;2022-10-16T09:39:49;19.10;99.90
18868;DHT22;9563;49.240;9.088;2022-10-16T09:42:17;19.20;99.90
18868;DHT22;9563;49.240;9.088;2022-10-16T09:44:48;19.40;99.90
18868;DHT22;9563;49.240;9.088;2022-10-16T09:47:18;19.60;99.90
18868;DHT22;9563;49.240;9.088;2022-10-16T09:49:55;19.80;99.90
18868;DHT22;9563;49.240;9.088;2022-10-16T09:52:24;20.00;99.90
18868;DHT22;9563;49.240;9.088;2022-10-16T09:54:53;20.10;99.90
18868;DHT22;9563;49.240;9.088;2022-10-16T09:57:22;20.10;99.90
18868;DHT22;9563;49.240;9.088;2022-10-16T09:59:50;20.00;99.90
18868;DHT22;9563;49.240;9.088;2022-10-16T10:02:19;20.00;99.90
18868;DHT22;9563;49.240;9.088;2022-10-16T10:04:50;19.80;99.90
18868;DHT22;9563;49.240;9.088;2022-10-16T10:07:24;20.00;99.90
18868;DHT22;9563;49.240;9.088;2022-10-16T10:09:53;20.70;99.90
18868;DHT22;9563;49.240;9.088;2022-10-16T10:12:23;21.50;99.90
18868;DHT22;9563;49.240;9.088;2022-10-16T10:14:51;22.10;99.90
18868;DHT22;9563;49.240;9.088;2022-10-16T10:17:20;22.80;99.90
18868;DHT22;9563;49.240;9.088;2022-10-16T10:19:52;23.50;99.90
18868;DHT22;9563;49.240;9.088;2022-10-16T10:22:31;24.10;99.90
18868;DHT22;9563;49.240;9.088;2022-10-16T10:25:26;24.60;99.90
18868;DHT22;9563;49.240;9.088;2022-10-16T10:28:20;25.10;99.90
18868;DHT22;9563;49.240;9.088;2022-10-16T10:30:55;25.60;99.90
18868;DHT22;9563;49.240;9.088;2022-10-16T10:33:28;26.00;99.90
18868;DHT22;9563;49.240;9.088;2022-10-16T10:36:08;26.10;99.90
18868;DHT22;9563;49.240;9.088;2022-10-16T10:38:46;25.70;99.90
18868;DHT22;9563;49.240;9.088;2022-10-16T10:41:35;25.40;99.90
18868;DHT22;9563;49.240;9.088;2022-10-16T10:44:13;25.00;99.90
18868;DHT22;9563;49.240;9.088;2022-10-16T10:46:45;24.70;99.90
18868;DHT22;9563;49.240;9.088;2022-10-16T10:49:25;24.40;99.90
18868;DHT22;9563;49.240;9.088;2022-10-16T10:52:02;23.90;99.90
18868;DHT22;9563;49.240;9.088;2022-10-16T10:54:45;23.30;99.90
18868;DHT22;9563;49.240;9.088;2022-10-16T10:57:22;23.10;99.90
18868;DHT22;9563;49.240;9.088;2022-10-16T11:00:03;23.00;99.90
18868;DHT22;9563;49.240;9.088;2022-10-16T11:02:38;23.20;99.90
18868;DHT22;9563;49.240;9.088;2022-10-16T11:05:38;23.40;99.90
18868;DHT22;9563;49.240;9.088;2022-10-16T11:08:11;23.90;99.90
18868;DHT22;9563;49.240;9.088;2022-10-16T11:10:47;24.30;99.90
18868;DHT22;9563;49.240;9.088;2022-10-16T11:13:25;24.60;99.90
18868;DHT22;9563;49.240;9.088;2022-10-16T11:15:58;24.70;99.90
18868;DHT22;9563;49.240;9.088;2022-10-16T11:18:31;24.70;99.90
18868;DHT22;9563;49.240;9.088;2022-10-16T11:21:04;24.90;99.90
18868;DHT22;9563;49.240;9.088;2022-10-16T11:23:38;25.10;99.90
18868;DHT22;9563;49.240;9.088;2022-10-16T11:26:11;25.00;99.90
18868;DHT22;9563;49.240;9.088;2022-10-16T11:28:44;25.00;99.90
18868;DHT22;9563;49.240;9.088;2022-10-16T11:31:17;25.00;99.90
18868;DHT22;9563;49.240;9.088;2022-10-16T11:33:49;24.80;99.90
18868;DHT22;9563;49.240;9.088;2022-10-16T11:36:21;24.90;99.90
18868;DHT22;9563;49.240;9.088;2022-10-16T11:38:54;24.80;99.90
18868;DHT22;9563;49.240;9.088;2022-10-16T11:41:28;24.70;99.90
18868;DHT22;9563;49.240;9.088;2022-10-16T11:47:03;24.80;99.90
18868;DHT22;9563;49.240;9.088;2022-10-16T11:49:36;24.70;99.90
18868;DHT22;9563;49.240;9.088;2022-10-16T11:52:10;24.70;99.90
18868;DHT22;9563;49.240;9.088;2022-10-16T11:54:44;24.80;99.90
18868;DHT22;9563;49.240;9.088;2022-10-16T11:57:17;24.60;99.90
18868;DHT22;9563;49.240;9.088;2022-10-16T11:59:49;24.50;99.90
18868;DHT22;9563;49.240;9.088;2022-10-16T12:02:33;24.50;99.90
18868;DHT22;9563;49.240;9.088;2022-10-16T12:05:20;24.20;99.90
18868;DHT22;9563;49.240;9.088;2022-10-16T12:07:55;23.80;99.90
18868;DHT22;9563;49.240;9.088;2022-10-16T12:10:26;23.60;99.90
18868;DHT22;9563;49.240;9.088;2022-10-16T12:12:56;23.50;99.90
18868;DHT22;9563;49.240;9.088;2022-10-16T12:15:25;23.50;99.90
18868;DHT22;9563;49.240;9.088;2022-10-16T12:17:53;23.70;99.90
18868;DHT22;9563;49.240;9.088;2022-10-16T12:20:24;23.80;99.90
18868;DHT22;9563;49.240;9.088;2022-10-16T12:22:55;23.70;99.90
18868;DHT22;9563;49.240;9.088;2022-10-16T12:25:25;23.40;99.90
18868;DHT22;9563;49.240;9.088;2022-10-16T12:28:00;23.30;99.90
18868;DHT22;9563;49.240;9.088;2022-10-16T12:30:30;23.00;99.90
18868;DHT22;9563;49.240;9.088;2022-10-16T12:32:59;22.60;99.90
18868;DHT22;9563;49.240;9.088;2022-10-16T12:35:29;22.40;99.90
18868;DHT22;9563;49.240;9.088;2022-10-16T12:38:12;22.30;99.90
18868;DHT22;9563;49.240;9.088;2022-10-16T12:40:43;22.20;99.90
18868;DHT22;9563;49.240;9.088;2022-10-16T12:43:36;22.20;99.90
18868;DHT22;9563;49.240;9.088;2022-10-16T12:46:19;22.20;99.90
18868;DHT22;9563;49.240;9.088;2022-10-16T12:48:47;22.30;99.90
18868;DHT22;9563;49.240;9.088;2022-10-16T12:51:24;22.60;99.90
18868;DHT22;9563;49.240;9.088;2022-10-16T12:54:00;22.80;99.90
18868;DHT22;9563;49.240;9.088;2022-10-16T12:56:38;23.10;99.90
18868;DHT22;9563;49.240;9.088;2022-10-16T12:59:16;23.30;99.90
18868;DHT22;9563;49.240;9.088;2022-10-16T13:02:01;23.30;99.90
18868;DHT22;9563;49.240;9.088;2022-10-16T13:04:53;22.90;99.90
18868;DHT22;9563;49.240;9.088;2022-10-16T13:07:37;22.50;99.90
18868;DHT22;9563;49.240;9.088;2022-10-16T13:10:14;22.30;99.90
18868;DHT22;9563;49.240;9.088;2022-10-16T13:12:54;22.20;99.90
18868;DHT22;9563;49.240;9.088;2022-10-16T13:15:49;22.00;99.90
18868;DHT22;9563;49.240;9.088;2022-10-16T13:18:23;21.90;99.90
18868;DHT22;9563;49.240;9.088;2022-10-16T13:21:06;21.80;99.90
18868;DHT22;9563;49.240;9.088;2022-10-16T13:23:38;21.70;99.90
18868;DHT22;9563;49.240;9.088;2022-10-16T13:26:17;21.60;99.90
18868;DHT22;9563;49.240;9.088;2022-10-16T13:28:47;21.50;99.90
18868;DHT22;9563;49.240;9.088;2022-10-16T13:31:19;21.50;99.90
18868;DHT22;9563;49.240;9.088;2022-10-16T13:33:49;21.40;99.90
18868;DHT22;9563;49.240;9.088;2022-10-16T13:36:22;21.40;99.90
18868;DHT22;9563;49.240;9.088;2022-10-16T13:39:00;21.30;99.90
18868;DHT22;9563;49.240;9.088;2022-10-16T13:41:27;21.30;99.90
18868;DHT22;9563;49.240;9.088;2022-10-16T13:43:54;21.20;99.90
18868;DHT22;9563;49.240;9.088;2022-10-16T13:46:25;21.10;99.90
18868;DHT22;9563;49.240;9.088;2022-10-16T13:48:56;21.10;99.90
18868;DHT22;9563;49.240;9.088;2022-10-16T13:51:24;21.00;99.90
18868;DHT22;9563;49.240;9.088;2022-10-16T13:53:51;21.00;99.90
18868;DHT22;9563;49.240;9.088;2022-10-16T13:56:21;20.90;99.90
18868;DHT22;9563;49.240;9.088;2022-10-16T13:58:58;20.90;99.90
18868;DHT22;9563;49.240;9.088;2022-10-16T14:01:28;20.90;99.90
18868;DHT22;9563;49.240;9.088;2022-10-16T14:04:02;20.80;99.90
18868;DHT22;9563;49.240;9.088;2022-10-16T14:06:31;20.90;99.90
18868;DHT22;9563;49.240;9.088;2022-10-16T14:09:02;20.80;99.90
18868;DHT22;9563;49.240;9.088;2022-10-16T14:11:32;20.80;99.90
18868;DHT22;9563;49.240;9.088;2022-10-16T14:14:00;20.80;99.90
18868;DHT22;9563;49.240;9.088;2022-10-16T14:16:31;20.80;99.90
18868;DHT22;9563;49.240;9.088;2022-10-16T14:19:00;20.80;99.90
18868;DHT22;9563;49.240;9.088;2022-10-16T14:21:28;20.80;99.90
18868;DHT22;9563;49.240;9.088;2022-10-16T14:23:55;20.90;99.90
18868;DHT22;9563;49.240;9.088;2022-10-16T14:26:25;20.90;99.90
18868;DHT22;9563;49.240;9.088;2022-10-16T14:29:09;20.80;99.90
18868;DHT22;9563;49.240;9.088;2022-10-16T14:31:39;20.80;99.90
18868;DHT22;9563;49.240;9.088;2022-10-16T14:34:22;20.80;99.90
18868;DHT22;9563;49.240;9.088;2022-10-16T14:36:50;20.70;99.90
18868;DHT22;9563;49.240;9.088;2022-10-16T14:39:19;20.70;99.90
18868;DHT22;9563;49.240;9.088;2022-10-16T14:41:48;20.60;99.90
18868;DHT22;9563;49.240;9.088;2022-10-16T14:44:17;20.60;99.90
18868;DHT22;9563;49.240;9.088;2022-10-16T14:46:46;20.50;99.90
18868;DHT22;9563;49.240;9.088;2022-10-16T14:49:16;20.40;99.90
18868;DHT22;9563;49.240;9.088;2022-10-16T14:51:45;20.40;99.90
18868;DHT22;9563;49.240;9.088;2022-10-16T14:54:12;20.40;99.90
18868;DHT22;9563;49.240;9.088;2022-10-16T14:56:46;20.40;99.90
18868;DHT22;9563;49.240;9.088;2022-10-16T14:59:17;20.40;99.90
18868;DHT22;9563;49.240;9.088;2022-10-16T15:01:46;20.40;99.90
18868;DHT22;9563;49.240;9.088;2022-10-16T15:04:13;20.30;99.90
18868;DHT22;9563;49.240;9.088;2022-10-16T15:06:41;20.30;99.90
18868;DHT22;9563;49.240;9.088;2022-10-16T15:09:08;20.20;99.90
18868;DHT22;9563;49.240;9.088;2022-10-16T15:11:35;20.20;99.90
18868;DHT22;9563;49.240;9.088;2022-10-16T15:14:02;20.20;99.90
18868;DHT22;9563;49.240;9.088;2022-10-16T15:16:30;20.20;99.90
18868;DHT22;9563;49.240;9.088;2022-10-16T15:18:58;20.10;99.90
18868;DHT22;9563;49.240;9.088;2022-10-16T15:21:28;20.20;99.90
18868;DHT22;9563;49.240;9.088;2022-10-16T15:23:55;20.30;99.90
18868;DHT22;9563;49.240;9.088;2022-10-16T15:26:23;20.40;99.90
18868;DHT22;9563;49.240;9.088;2022-10-16T15:28:50;20.50;99.90
18868;DHT22;9563;49.240;9.088;2022-10-16T15:31:17;20.70;99.90
18868;DHT22;9563;49.240;9.088;2022-10-16T15:33:44;20.80;99.90
18868;DHT22;9563;49.240;9.088;2022-10-16T15:36:24;20.90;99.90
18868;DHT22;9563;49.240;9.088;2022-10-16T15:38:51;21.00;99.90
18868;DHT22;9563;49.240;9.088;2022-10-16T15:41:19;20.90;99.90
18868;DHT22;9563;49.240;9.088;2022-10-16T15:43:47;20.90;99.90
18868;DHT22;9563;49.240;9.088;2022-10-16T15:46:15;20.80;99.90
18868;DHT22;9563;49.240;9.088;2022-10-16T15:48:43;20.70;99.90
18868;DHT22;9563;49.240;9.088;2022-10-16T15:51:10;20.60;99.90
18868;DHT22;9563;49.240;9.088;2022-10-16T15:53:38;20.50;99.90
18868;DHT22;9563;49.240;9.088;2022-10-16T15:56:07;20.40;99.90
18868;DHT22;9563;49.240;9.088;2022-10-16T15:58:35;20.20;99.90
18868;DHT22;9563;49.240;9.088;2022-10-16T16:01:03;20.00;99.90
18868;DHT22;9563;49.240;9.088;2022-10-16T16:03:31;20.00;99.90
18868;DHT22;9563;49.240;9.088;2022-10-16T16:06:03;19.90;99.90
18868;DHT22;9563;49.240;9.088;2022-10-16T16:08:30;19.90;99.90